createdAt,value
2023-01-12T00:02:09.175Z,10.39
2023-01-12T00:04:54.240Z,10.36
2023-01-12T00:07:39.661Z,10.31
2023-01-12T00:10:25.028Z,10.26
2023-01-12T00:13:10.454Z,10.22
2023-01-12T00:16:19.171Z,10.18
2023-01-12T00:19:13.351Z,10.13
2023-01-12T00:22:11.915Z,10.15
2023-01-12T00:24:57.300Z,10.21
2023-01-12T00:27:42.818Z,10.23
2023-01-12T00:30:28.197Z,10.31
2023-01-12T00:33:14.330Z,10.33
2023-01-12T00:36:02.958Z,10.40
2023-01-12T00:38:48.502Z,10.29
2023-01-12T00:41:52.599Z,10.09
2023-01-12T00:44:56.790Z,9.97
2023-01-12T00:47:43.279Z,9.91
2023-01-12T00:50:28.721Z,9.87
2023-01-12T00:53:14.374Z,9.85
2023-01-12T00:56:04.256Z,9.89
2023-01-12T00:58:49.616Z,9.93
2023-01-12T01:01:35.376Z,9.96
2023-01-12T01:04:21.044Z,9.99
2023-01-12T01:07:06.749Z,9.98
2023-01-12T01:09:52.680Z,9.90
2023-01-12T01:12:37.804Z,9.80
2023-01-12T01:15:23.191Z,9.71
2023-01-12T01:18:08.518Z,9.63
2023-01-12T01:20:54.347Z,9.57
2023-01-12T01:23:40.970Z,9.55
2023-01-12T01:26:26.611Z,9.55
2023-01-12T01:29:11.949Z,9.57
2023-01-12T01:31:57.415Z,9.56
2023-01-12T01:34:44.017Z,9.57
2023-01-12T01:37:29.391Z,9.59
2023-01-12T01:40:14.662Z,9.63
2023-01-12T01:43:00.446Z,9.68
2023-01-12T01:45:50.989Z,9.68
2023-01-12T01:48:38.855Z,9.66
2023-01-12T01:51:24.395Z,9.64
2023-01-12T01:54:09.880Z,9.56
2023-01-12T01:56:57.511Z,9.51
2023-01-12T01:59:50.344Z,9.47
2023-01-12T02:02:37.180Z,9.45
2023-01-12T02:05:26.953Z,9.47
2023-01-12T02:08:49.679Z,9.48
2023-01-12T02:11:53.793Z,9.48
2023-01-12T02:14:59.659Z,9.50
2023-01-12T02:18:24.036Z,9.52
2023-01-12T02:21:33.673Z,9.57
2023-01-12T02:24:46.641Z,9.55
2023-01-12T02:27:38.403Z,9.52
2023-01-12T02:31:00.878Z,9.48
2023-01-12T02:34:12.691Z,9.49
2023-01-12T02:37:18.906Z,9.50
2023-01-12T02:40:25.877Z,9.49
2023-01-12T02:43:11.511Z,9.48
2023-01-12T02:46:24.097Z,9.48
2023-01-12T02:49:16.751Z,9.53
2023-01-12T02:52:10.074Z,9.53
2023-01-12T02:54:57.592Z,9.49
2023-01-12T02:57:43.446Z,9.48
2023-01-12T03:00:29.920Z,9.48
2023-01-12T03:03:17.318Z,9.50
2023-01-12T03:06:05.231Z,9.48
2023-01-12T03:08:52.445Z,9.44
2023-01-12T03:11:40.936Z,9.44
2023-01-12T03:14:27.720Z,9.48
2023-01-12T03:17:40.221Z,9.42
2023-01-12T03:20:30.985Z,9.30
2023-01-12T03:23:44.666Z,9.30
2023-01-12T03:26:33.091Z,9.30
2023-01-12T03:29:34.751Z,9.28
2023-01-12T03:32:21.964Z,9.33
2023-01-12T03:35:08.971Z,9.36
2023-01-12T03:38:05.082Z,9.35
2023-01-12T03:41:15.874Z,9.26
2023-01-12T03:44:05.697Z,9.17
2023-01-12T03:46:59.351Z,9.20
2023-01-12T03:49:50.962Z,9.31
2023-01-12T03:52:40.035Z,9.36
2023-01-12T03:55:30.103Z,9.31
2023-01-12T03:58:16.991Z,9.26
2023-01-12T04:01:04.255Z,9.18
2023-01-12T04:03:49.955Z,9.10
2023-01-12T04:06:35.208Z,9.06
2023-01-12T04:09:22.974Z,9.07
2023-01-12T04:12:13.251Z,9.07
2023-01-12T04:14:59.156Z,9.10
2023-01-12T04:17:44.637Z,9.07
2023-01-12T04:20:30.047Z,9.12
2023-01-12T04:23:15.350Z,9.16
2023-01-12T04:26:00.781Z,9.15
2023-01-12T04:28:46.002Z,9.04
2023-01-12T04:31:31.345Z,8.94
2023-01-12T04:34:16.768Z,8.92
2023-01-12T04:37:02.872Z,8.89
2023-01-12T04:39:48.488Z,8.88
2023-01-12T04:42:52.465Z,8.90
2023-01-12T04:45:40.401Z,8.92
2023-01-12T04:48:25.999Z,8.92
2023-01-12T04:51:12.127Z,8.90
2023-01-12T04:53:57.474Z,8.90
2023-01-12T04:56:42.899Z,8.89
2023-01-12T04:59:29.396Z,8.82
2023-01-12T05:02:15.076Z,8.82
2023-01-12T05:05:00.402Z,8.82
2023-01-12T05:08:04.114Z,8.78
2023-01-12T05:10:57.364Z,8.82
2023-01-12T05:13:42.928Z,8.78
2023-01-12T05:16:28.384Z,8.88
2023-01-12T05:19:13.738Z,8.90
2023-01-12T05:21:59.435Z,8.92
2023-01-12T05:24:44.994Z,8.90
2023-01-12T05:27:30.507Z,8.97
2023-01-12T05:30:16.394Z,8.98
2023-01-12T05:33:01.841Z,8.98
2023-01-12T05:35:47.567Z,8.94
2023-01-12T05:38:33.418Z,8.91
2023-01-12T05:41:19.078Z,8.90
2023-01-12T05:44:04.588Z,8.90
2023-01-12T05:46:50.444Z,8.92
2023-01-12T05:49:36.134Z,8.90
2023-01-12T05:52:21.360Z,8.84
2023-01-12T05:55:07.272Z,8.89
2023-01-12T05:57:53.032Z,8.95
2023-01-12T06:00:38.268Z,9.02
2023-01-12T06:03:23.885Z,9.11
2023-01-12T06:06:09.343Z,9.18
2023-01-12T06:08:55.080Z,9.15
2023-01-12T06:11:59.248Z,9.14
2023-01-12T06:14:44.847Z,9.09
2023-01-12T06:17:31.006Z,9.21
2023-01-12T06:20:17.479Z,9.25
2023-01-12T06:23:05.179Z,9.20
2023-01-12T06:25:50.790Z,9.14
2023-01-12T06:28:37.344Z,9.12
2023-01-12T06:31:22.979Z,9.18
2023-01-12T06:34:08.703Z,9.26
2023-01-12T06:36:54.036Z,9.23
2023-01-12T06:39:39.284Z,9.20
2023-01-12T06:42:30.500Z,9.16
2023-01-12T06:45:16.300Z,9.11
2023-01-12T06:48:01.986Z,9.16
2023-01-12T06:50:48.138Z,9.21
2023-01-12T06:53:33.349Z,9.21
2023-01-12T06:56:18.796Z,9.21
2023-01-12T06:59:04.057Z,9.24
2023-01-12T07:01:49.532Z,9.24
2023-01-12T07:04:35.265Z,9.27
2023-01-12T07:07:20.532Z,9.34
2023-01-12T07:10:06.741Z,9.41
2023-01-12T07:12:52.428Z,9.48
2023-01-12T07:15:38.145Z,9.54
2023-01-12T07:18:23.789Z,9.55
2023-01-12T07:21:10.693Z,9.55
2023-01-12T07:23:55.910Z,9.54
2023-01-12T07:26:41.301Z,9.50
2023-01-12T07:29:26.653Z,9.46
2023-01-12T07:32:12.038Z,9.50
2023-01-12T07:34:57.719Z,9.54
2023-01-12T07:37:51.083Z,9.58
2023-01-12T07:40:37.134Z,9.65
2023-01-12T07:43:23.414Z,9.64
2023-01-12T07:46:09.052Z,9.53
2023-01-12T07:48:54.380Z,9.47
2023-01-12T07:51:39.832Z,9.50
2023-01-12T07:54:25.472Z,9.51
2023-01-12T07:57:11.360Z,9.43
2023-01-12T07:59:56.625Z,9.41
2023-01-12T08:02:42.001Z,9.50
2023-01-12T08:05:27.389Z,9.52
2023-01-12T08:08:12.572Z,9.59
2023-01-12T08:11:09.311Z,9.64
2023-01-12T08:13:57.030Z,9.60
2023-01-12T08:16:46.466Z,9.50
2023-01-12T08:19:41.019Z,9.42
2023-01-12T08:22:34.182Z,9.38
2023-01-12T08:25:26.990Z,9.32
2023-01-12T08:28:17.955Z,9.25
2023-01-12T08:31:04.968Z,9.17
2023-01-12T08:33:53.200Z,9.09
2023-01-12T08:36:43.864Z,8.98
2023-01-12T08:39:29.940Z,8.93
2023-01-12T08:42:15.670Z,8.93
2023-01-12T08:45:01.661Z,8.91
2023-01-12T08:47:46.979Z,8.90
2023-01-12T08:50:32.310Z,8.82
2023-01-12T08:53:17.565Z,8.75
2023-01-12T08:56:03.156Z,8.71
2023-01-12T08:58:49.073Z,8.72
2023-01-12T09:01:35.083Z,8.74
2023-01-12T09:04:20.856Z,8.79
2023-01-12T09:07:07.132Z,8.74
2023-01-12T09:09:52.713Z,8.42
2023-01-12T09:12:38.147Z,8.08
2023-01-12T09:15:23.783Z,7.87
2023-01-12T09:18:09.555Z,7.53
2023-01-12T09:21:01.561Z,7.09
2023-01-12T09:23:49.435Z,6.82
2023-01-12T09:26:43.471Z,6.57
2023-01-12T09:29:28.976Z,6.43
2023-01-12T09:32:14.853Z,6.33
2023-01-12T09:35:00.944Z,6.29
2023-01-12T09:37:46.363Z,6.25
2023-01-12T09:40:32.248Z,6.24
2023-01-12T09:43:36.143Z,6.26
2023-01-12T09:46:50.812Z,6.18
2023-01-12T09:49:42.566Z,6.10
2023-01-12T09:52:38.113Z,6.20
2023-01-12T09:55:26.220Z,6.30
2023-01-12T09:58:24.353Z,6.36
2023-01-12T10:01:24.153Z,6.37
2023-01-12T10:04:14.837Z,6.32
2023-01-12T10:07:00.070Z,6.34
2023-01-12T10:09:46.418Z,6.40
2023-01-12T10:12:42.616Z,6.51
2023-01-12T10:15:40.769Z,6.60
2023-01-12T10:18:48.002Z,6.76
2023-01-12T10:21:33.647Z,6.92
2023-01-12T10:24:23.281Z,7.08
2023-01-12T10:27:13.700Z,7.26
2023-01-12T10:29:59.358Z,7.43
2023-01-12T10:32:45.717Z,7.24
2023-01-12T10:35:31.253Z,6.64
2023-01-12T10:38:36.177Z,6.23
2023-01-12T10:41:26.515Z,6.14
2023-01-12T10:44:16.878Z,6.17
2023-01-12T10:47:10.391Z,6.24
2023-01-12T10:50:20.622Z,6.32
2023-01-12T10:53:15.745Z,6.43
2023-01-12T10:56:21.642Z,6.59
2023-01-12T10:59:17.947Z,6.72
2023-01-12T11:02:09.459Z,6.85
2023-01-12T11:04:55.876Z,7.09
2023-01-12T11:07:49.772Z,7.17
2023-01-12T11:10:38.837Z,7.21
2023-01-12T11:13:36.690Z,7.28
2023-01-12T11:16:34.923Z,7.42
2023-01-12T11:19:29.562Z,7.65
2023-01-12T11:22:37.423Z,7.85
2023-01-12T11:25:26.130Z,7.88
2023-01-12T11:28:29.706Z,7.62
2023-01-12T11:31:21.804Z,7.07
2023-01-12T11:34:19.044Z,6.55
2023-01-12T11:37:14.670Z,6.31
2023-01-12T11:40:14.902Z,6.17
2023-01-12T11:43:40.712Z,6.12
2023-01-12T11:46:36.550Z,6.13
2023-01-12T11:49:59.290Z,6.24
2023-01-12T11:52:45.331Z,6.33
2023-01-12T11:55:52.554Z,6.37
2023-01-12T11:58:38.037Z,6.46
2023-01-12T12:01:50.568Z,6.58
2023-01-12T12:04:56.091Z,6.71
2023-01-12T12:08:03.262Z,6.82
2023-01-12T12:10:54.435Z,6.89
2023-01-12T12:14:04.018Z,6.97
2023-01-12T12:16:52.331Z,7.04
2023-01-12T12:20:10.421Z,7.12
2023-01-12T12:23:25.661Z,7.19
2023-01-12T12:26:13.836Z,7.19
2023-01-12T12:29:13.881Z,7.21
2023-01-12T12:32:11.456Z,7.22
2023-01-12T12:35:21.057Z,7.20
2023-01-12T12:38:09.407Z,7.17
2023-01-12T12:41:19.819Z,7.20
2023-01-12T12:44:47.207Z,7.16
2023-01-12T12:47:32.879Z,7.19
2023-01-12T12:50:38.661Z,7.24
2023-01-12T12:53:35.594Z,7.31
2023-01-12T12:56:25.547Z,7.29
2023-01-12T12:59:52.159Z,7.15
2023-01-12T13:02:54.285Z,7.02
2023-01-12T13:05:43.260Z,6.98
2023-01-12T13:08:34.923Z,6.93
2023-01-12T13:11:21.507Z,6.80
2023-01-12T13:14:19.961Z,6.72
2023-01-12T13:17:21.152Z,6.71
2023-01-12T13:20:16.719Z,6.73
2023-01-12T13:23:46.271Z,6.74
2023-01-12T13:26:35.124Z,6.75
2023-01-12T13:29:23.845Z,6.72
2023-01-12T13:32:36.052Z,6.68
2023-01-12T13:35:29.521Z,6.61
2023-01-12T13:38:38.631Z,6.59
2023-01-12T13:41:47.447Z,6.68
2023-01-12T13:44:40.223Z,6.81
2023-01-12T13:47:30.553Z,6.91
2023-01-12T13:50:24.936Z,6.95
2023-01-12T13:53:21.253Z,6.97
2023-01-12T13:56:08.219Z,6.88
2023-01-12T13:59:01.816Z,6.67
2023-01-12T14:01:48.650Z,6.57
2023-01-12T14:05:12.629Z,6.55
2023-01-12T14:08:07.494Z,6.59
2023-01-12T14:11:05.550Z,6.71
2023-01-12T14:14:53.695Z,6.81
2023-01-12T14:17:57.747Z,6.92
2023-01-12T14:20:51.005Z,7.02
2023-01-12T14:23:36.375Z,7.10
2023-01-12T14:26:24.209Z,7.07
2023-01-12T14:29:11.570Z,7.02
2023-01-12T14:31:58.051Z,7.06
2023-01-12T14:34:53.058Z,7.06
2023-01-12T14:37:39.327Z,7.00
2023-01-12T14:40:32.993Z,6.74
2023-01-12T14:43:37.076Z,6.46
2023-01-12T14:46:33.617Z,5.99
2023-01-12T14:49:28.507Z,5.50
2023-01-12T14:52:16.955Z,5.29
2023-01-12T14:55:24.369Z,5.16
2023-01-12T14:58:20.963Z,5.09
2023-01-12T15:01:06.591Z,5.03
2023-01-12T15:03:53.419Z,4.97
2023-01-12T15:06:41.375Z,5.06
2023-01-12T15:09:29.414Z,5.21
2023-01-12T15:12:25.460Z,5.41
2023-01-12T15:15:17.050Z,5.56
2023-01-12T15:18:20.869Z,5.78
2023-01-12T15:21:24.913Z,5.90
2023-01-12T15:24:46.804Z,5.94
2023-01-12T15:27:33.823Z,5.98
2023-01-12T15:30:19.552Z,6.07
2023-01-12T15:33:05.400Z,6.15
2023-01-12T15:35:50.968Z,6.20
2023-01-12T15:38:36.439Z,6.24
2023-01-12T15:41:44.982Z,6.15
2023-01-12T15:44:30.532Z,6.25
2023-01-12T15:47:17.733Z,6.34
2023-01-12T15:50:05.641Z,6.34
2023-01-12T15:52:51.276Z,6.32
2023-01-12T15:55:37.406Z,6.30
2023-01-12T15:58:23.939Z,6.28
2023-01-12T16:01:14.787Z,6.24
2023-01-12T16:04:36.003Z,6.16
2023-01-12T16:07:05.938Z,6.21
2023-01-12T16:09:51.257Z,6.11
2023-01-12T16:12:37.296Z,6.05
2023-01-12T16:15:25.099Z,6.05
2023-01-12T16:18:10.425Z,6.08
2023-01-12T16:20:59.648Z,6.06
2023-01-12T16:23:46.363Z,6.05
2023-01-12T16:26:31.793Z,6.08
2023-01-12T16:29:17.645Z,6.10
2023-01-12T16:32:03.733Z,6.20
2023-01-12T16:34:49.049Z,6.18
2023-01-12T16:37:35.430Z,6.08
2023-01-12T16:40:21.227Z,5.94
2023-01-12T16:43:06.487Z,5.87
2023-01-12T16:45:52.096Z,5.70
2023-01-12T16:48:39.442Z,5.70
2023-01-12T16:51:25.727Z,5.76
2023-01-12T16:54:11.207Z,5.75
2023-01-12T16:56:58.157Z,5.84
2023-01-12T16:59:44.131Z,5.85
2023-01-12T17:02:31.679Z,5.83
2023-01-12T17:05:17.951Z,5.79
2023-01-12T17:08:03.354Z,5.85
2023-01-12T17:10:49.287Z,5.80
2023-01-12T17:13:34.816Z,5.81
2023-01-12T17:16:21.889Z,5.71
2023-01-12T17:19:07.746Z,5.65
2023-01-12T17:21:55.000Z,5.57
2023-01-12T17:24:41.187Z,5.45
2023-01-12T17:27:26.852Z,5.36
2023-01-12T17:30:12.840Z,5.31
2023-01-12T17:32:58.390Z,5.19
2023-01-12T17:35:43.838Z,5.13
2023-01-12T17:38:28.997Z,5.17
2023-01-12T17:41:34.917Z,5.17
2023-01-12T17:44:20.947Z,5.27
2023-01-12T17:47:06.577Z,5.33
2023-01-12T17:49:53.282Z,5.27
2023-01-12T17:52:38.713Z,5.27
2023-01-12T17:55:23.900Z,5.31
2023-01-12T17:58:09.405Z,5.26
2023-01-12T18:00:54.697Z,5.28
2023-01-12T18:03:40.467Z,5.35
2023-01-12T18:06:27.169Z,5.37
2023-01-12T18:09:13.900Z,5.45
2023-01-12T18:12:00.355Z,5.49
2023-01-12T18:14:45.899Z,5.57
2023-01-12T18:17:31.658Z,5.56
2023-01-12T18:20:17.274Z,5.55
2023-01-12T18:23:02.473Z,5.57
2023-01-12T18:25:48.719Z,5.57
2023-01-12T18:28:34.422Z,5.64
2023-01-12T18:31:23.841Z,5.63
2023-01-12T18:34:10.372Z,5.63
2023-01-12T18:36:56.111Z,5.51
2023-01-12T18:39:43.959Z,5.44
2023-01-12T18:42:48.005Z,5.34
2023-01-12T18:45:33.668Z,5.34
2023-01-12T18:48:23.449Z,5.37
2023-01-12T18:51:27.313Z,5.45
2023-01-12T18:54:13.009Z,5.47
2023-01-12T18:56:58.334Z,5.44
2023-01-12T18:59:44.796Z,5.38
2023-01-12T19:02:30.328Z,5.30
2023-01-12T19:05:36.256Z,5.34
2023-01-12T19:08:40.766Z,5.43
2023-01-12T19:11:26.500Z,5.49
2023-01-12T19:14:30.293Z,5.62
2023-01-12T19:17:28.041Z,5.68
2023-01-12T19:20:17.517Z,5.72
2023-01-12T19:23:21.462Z,5.73
2023-01-12T19:26:28.135Z,5.73
2023-01-12T19:29:13.665Z,5.74
2023-01-12T19:31:59.369Z,5.80
2023-01-12T19:34:44.825Z,5.79
2023-01-12T19:37:30.058Z,5.84
2023-01-12T19:40:34.249Z,5.85
2023-01-12T19:43:25.676Z,5.84
2023-01-12T19:46:13.135Z,5.85
2023-01-12T19:48:58.570Z,5.84
2023-01-12T19:51:46.193Z,5.91
2023-01-12T19:54:31.713Z,5.89
2023-01-12T19:57:17.081Z,5.89
2023-01-12T20:00:05.054Z,5.92
2023-01-12T20:02:58.051Z,5.95
2023-01-12T20:05:44.479Z,6.00
2023-01-12T20:08:29.731Z,6.07
2023-01-12T20:11:16.363Z,6.11
2023-01-12T20:14:01.820Z,6.13
2023-01-12T20:16:47.473Z,6.15
2023-01-12T20:19:34.226Z,6.13
2023-01-12T20:22:19.711Z,6.11
2023-01-12T20:25:06.287Z,6.12
2023-01-12T20:27:53.253Z,6.12
2023-01-12T20:30:41.779Z,6.08
2023-01-12T20:33:28.447Z,6.10
2023-01-12T20:36:16.557Z,6.12
2023-01-12T20:39:02.183Z,6.09
2023-01-12T20:41:49.354Z,6.08
2023-01-12T20:44:35.375Z,6.10
2023-01-12T20:47:21.728Z,6.14
2023-01-12T20:50:08.382Z,6.20
2023-01-12T20:52:54.429Z,6.25
2023-01-12T20:55:50.098Z,6.29
2023-01-12T20:58:36.812Z,6.28
2023-01-12T21:01:22.616Z,6.25
2023-01-12T21:04:08.535Z,6.24
2023-01-12T21:06:53.793Z,6.34
2023-01-12T21:09:40.036Z,6.26
2023-01-12T21:12:27.502Z,6.19
2023-01-12T21:15:13.634Z,6.10
2023-01-12T21:17:59.251Z,6.00
2023-01-12T21:20:45.068Z,5.90
2023-01-12T21:23:31.010Z,5.82
2023-01-12T21:26:16.604Z,5.79
2023-01-12T21:29:02.253Z,5.73
2023-01-12T21:31:48.047Z,5.75
2023-01-12T21:34:33.543Z,5.79
2023-01-12T21:37:19.568Z,5.81
2023-01-12T21:40:05.576Z,5.79
2023-01-12T21:43:08.917Z,5.77
2023-01-12T21:45:55.002Z,5.76
2023-01-12T21:48:40.457Z,5.77
2023-01-12T21:51:25.730Z,5.71
2023-01-12T21:54:11.160Z,5.69
2023-01-12T21:56:56.625Z,5.69
2023-01-12T21:59:42.011Z,5.70
2023-01-12T22:02:27.403Z,5.73
2023-01-12T22:05:14.006Z,5.80
2023-01-12T22:07:59.727Z,5.82
2023-01-12T22:10:45.781Z,5.81
2023-01-12T22:13:31.275Z,5.89
2023-01-12T22:16:17.127Z,5.97
2023-01-12T22:19:03.658Z,5.95
2023-01-12T22:21:48.977Z,5.95
2023-01-12T22:24:34.334Z,5.97
2023-01-12T22:27:19.501Z,6.01
2023-01-12T22:30:06.449Z,6.00
2023-01-12T22:32:54.829Z,6.01
2023-01-12T22:35:40.173Z,6.01
2023-01-12T22:38:25.501Z,6.05
2023-01-12T22:41:12.894Z,6.08
2023-01-12T22:43:58.284Z,6.13
2023-01-12T22:46:43.979Z,6.13
2023-01-12T22:49:29.823Z,6.17
2023-01-12T22:52:15.145Z,6.18
2023-01-12T22:55:00.815Z,6.21
2023-01-12T22:57:46.324Z,6.24
2023-01-12T23:00:32.026Z,6.26
2023-01-12T23:03:17.868Z,6.25
2023-01-12T23:06:04.635Z,6.28
2023-01-12T23:08:51.086Z,6.19
2023-01-12T23:11:36.350Z,6.13
2023-01-12T23:14:21.859Z,6.05
2023-01-12T23:17:07.745Z,6.01
2023-01-12T23:19:53.336Z,5.97
2023-01-12T23:22:39.322Z,5.85
2023-01-12T23:25:24.509Z,5.74
2023-01-12T23:28:12.137Z,5.72
2023-01-12T23:31:06.083Z,5.78
2023-01-12T23:33:52.115Z,5.81
2023-01-12T23:36:37.688Z,5.81
2023-01-12T23:39:23.225Z,5.82
2023-01-12T23:42:08.421Z,5.82
2023-01-12T23:44:53.630Z,5.82
2023-01-12T23:47:39.043Z,5.79
2023-01-12T23:50:24.675Z,5.78
2023-01-12T23:53:10.292Z,5.75
2023-01-12T23:55:56.734Z,5.73
2023-01-12T23:58:43.734Z,5.71
